sensor_id;sensor_type;location;lat;lon;timestamp;pressure;altitude;pressure_sealevel;temperature;humidity
75923;BME280;64602;47.542;19.090;2022-11-20T06:47:02;99979.06;;;2.24;80.44
75923;BME280;64602;47.542;19.090;2022-11-20T06:52:04;99994.31;;;2.30;79.98
75923;BME280;64602;47.542;19.090;2022-11-20T06:57:06;99993.87;;;2.33;79.76
75923;BME280;64602;47.542;19.090;2022-11-20T07:02:12;99972.88;;;2.37;79.77
75923;BME280;64602;47.542;19.090;2022-11-20T07:07:14;99991.38;;;2.51;79.35
75923;BME280;64602;47.542;19.090;2022-11-20T07:12:16;99971.19;;;2.62;79.44
75923;BME280;64602;47.542;19.090;2022-11-20T07:17:18;99963.72;;;2.64;79.55
75923;BME280;64602;47.542;19.090;2022-11-20T07:22:20;99968.25;;;2.70;79.09
75923;BME280;64602;47.542;19.090;2022-11-20T07:27:23;99982.47;;;2.71;79.27
75923;BME280;64602;47.542;19.090;2022-11-20T07:32:25;100006.56;;;2.84;79.76
75923;BME280;64602;47.542;19.090;2022-11-20T07:37:27;100005.12;;;2.82;80.84
75923;BME280;64602;47.542;19.090;2022-11-20T07:42:29;100011.88;;;2.91;81.48
75923;BME280;64602;47.542;19.090;2022-11-20T07:47:35;100020.13;;;2.96;82.08
75923;BME280;64602;47.542;19.090;2022-11-20T07:52:38;100010.81;;;3.12;82.37
75923;BME280;64602;47.542;19.090;2022-11-20T07:57:40;100006.44;;;3.17;82.20
75923;BME280;64602;47.542;19.090;2022-11-20T08:02:42;100028.88;;;3.30;82.52
75923;BME280;64602;47.542;19.090;2022-11-20T08:07:44;100014.00;;;3.34;82.16
75923;BME280;64602;47.542;19.090;2022-11-20T08:12:48;100012.69;;;3.50;81.51
75923;BME280;64602;47.542;19.090;2022-11-20T08:18:11;99979.66;;;3.49;81.70
75923;BME280;64602;47.542;19.090;2022-11-20T08:23:33;100002.66;;;3.70;81.54
75923;BME280;64602;47.542;19.090;2022-11-20T08:28:35;99996.59;;;3.81;80.90
75923;BME280;64602;47.542;19.090;2022-11-20T08:33:37;100004.22;;;3.84;80.67
75923;BME280;64602;47.542;19.090;2022-11-20T08:38:39;99991.78;;;3.90;80.84
75923;BME280;64602;47.542;19.090;2022-11-20T08:43:41;99983.50;;;3.92;80.52
75923;BME280;64602;47.542;19.090;2022-11-20T08:48:44;100006.50;;;4.13;80.24
75923;BME280;64602;47.542;19.090;2022-11-20T08:53:46;100025.06;;;4.14;79.98
75923;BME280;64602;47.542;19.090;2022-11-20T08:58:51;100016.56;;;4.17;79.94
75923;BME280;64602;47.542;19.090;2022-11-20T09:04:14;100006.03;;;4.16;79.32
75923;BME280;64602;47.542;19.090;2022-11-20T09:09:17;100017.00;;;4.14;77.95
75923;BME280;64602;47.542;19.090;2022-11-20T09:14:20;100016.37;;;4.12;78.39
75923;BME280;64602;47.542;19.090;2022-11-20T09:19:26;100030.47;;;4.07;78.32
75923;BME280;64602;47.542;19.090;2022-11-20T09:24:41;100038.97;;;4.04;79.02
75923;BME280;64602;47.542;19.090;2022-11-20T09:29:44;100040.63;;;4.05;79.15
75923;BME280;64602;47.542;19.090;2022-11-20T09:34:46;100028.72;;;3.95;78.62
75923;BME280;64602;47.542;19.090;2022-11-20T09:39:48;100022.25;;;4.02;78.56
75923;BME280;64602;47.542;19.090;2022-11-20T09:45:10;100012.28;;;4.10;78.15
75923;BME280;64602;47.542;19.090;2022-11-20T09:50:28;100022.47;;;4.26;78.02
75923;BME280;64602;47.542;19.090;2022-11-20T09:55:33;100010.63;;;4.34;77.92
75923;BME280;64602;47.542;19.090;2022-11-20T10:00:37;99995.88;;;4.43;77.71
75923;BME280;64602;47.542;19.090;2022-11-20T10:05:50;99992.63;;;4.59;76.80
75923;BME280;64602;47.542;19.090;2022-11-20T10:11:13;99989.66;;;4.86;76.91
75923;BME280;64602;47.542;19.090;2022-11-20T10:22:18;99994.06;;;5.47;75.28
75923;BME280;64602;47.542;19.090;2022-11-20T10:32:46;99962.66;;;6.89;70.62
75923;BME280;64602;47.542;19.090;2022-11-20T10:38:01;99958.47;;;9.62;61.23
75923;BME280;64602;47.542;19.090;2022-11-20T10:43:11;99958.59;;;12.19;53.62
75923;BME280;64602;47.542;19.090;2022-11-20T10:48:19;99964.69;;;13.56;49.57
75923;BME280;64602;47.542;19.090;2022-11-20T10:53:40;99961.69;;;16.03;44.00
75923;BME280;64602;47.542;19.090;2022-11-20T10:58:53;99959.62;;;16.61;42.11
75923;BME280;64602;47.542;19.090;2022-11-20T11:03:58;99969.09;;;16.36;40.71
75923;BME280;64602;47.542;19.090;2022-11-20T11:09:08;99973.34;;;16.88;39.62
75923;BME280;64602;47.542;19.090;2022-11-20T11:14:14;99983.03;;;16.20;39.73
75923;BME280;64602;47.542;19.090;2022-11-20T11:19:17;99987.97;;;12.48;47.32
75923;BME280;64602;47.542;19.090;2022-11-20T11:24:25;99975.47;;;10.49;52.92
75923;BME280;64602;47.542;19.090;2022-11-20T11:29:45;99981.31;;;9.71;55.66
75923;BME280;64602;47.542;19.090;2022-11-20T11:35:07;99978.91;;;9.75;56.08
75923;BME280;64602;47.542;19.090;2022-11-20T11:40:21;99978.69;;;10.14;55.61
75923;BME280;64602;47.542;19.090;2022-11-20T11:45:26;99978.94;;;11.65;51.39
75923;BME280;64602;47.542;19.090;2022-11-20T11:50:29;99952.72;;;11.18;52.10
75923;BME280;64602;47.542;19.090;2022-11-20T12:00:57;99941.22;;;8.53;59.06
75923;BME280;64602;47.542;19.090;2022-11-20T12:06:10;99928.53;;;8.20;60.83
75923;BME280;64602;47.542;19.090;2022-11-20T12:16:19;99922.41;;;7.74;62.92
75923;BME280;64602;47.542;19.090;2022-11-20T12:42:31;99921.91;;;6.74;67.14
75923;BME280;64602;47.542;19.090;2022-11-20T12:58:57;99926.09;;;6.29;68.69
75923;BME280;64602;47.542;19.090;2022-11-20T13:04:07;99933.34;;;6.29;69.34
75923;BME280;64602;47.542;19.090;2022-11-20T13:09:23;99932.50;;;6.28;69.51
75923;BME280;64602;47.542;19.090;2022-11-20T13:19:31;99937.09;;;6.39;69.62
75923;BME280;64602;47.542;19.090;2022-11-20T13:24:33;99940.00;;;6.38;69.24
75923;BME280;64602;47.542;19.090;2022-11-20T13:29:37;99938.25;;;6.55;69.20
75923;BME280;64602;47.542;19.090;2022-11-20T13:34:39;99937.19;;;6.56;69.06
75923;BME280;64602;47.542;19.090;2022-11-20T13:39:41;99917.03;;;6.59;68.82
75923;BME280;64602;47.542;19.090;2022-11-20T13:44:50;99930.72;;;6.69;69.10
75923;BME280;64602;47.542;19.090;2022-11-20T13:49:54;99916.41;;;6.69;69.28
75923;BME280;64602;47.542;19.090;2022-11-20T13:55:19;99900.25;;;6.57;69.85
75923;BME280;64602;47.542;19.090;2022-11-20T14:00:24;99902.13;;;6.56;70.29
75923;BME280;64602;47.542;19.090;2022-11-20T14:05:34;99902.63;;;6.53;70.47
75923;BME280;64602;47.542;19.090;2022-11-20T14:10:37;99891.97;;;6.35;70.82
75923;BME280;64602;47.542;19.090;2022-11-20T14:15:41;99903.47;;;6.30;71.19
75923;BME280;64602;47.542;19.090;2022-11-20T14:20:46;99885.66;;;6.17;71.45
75923;BME280;64602;47.542;19.090;2022-11-20T14:25:48;99894.94;;;6.10;72.11
75923;BME280;64602;47.542;19.090;2022-11-20T14:30:51;99892.34;;;6.03;72.26
75923;BME280;64602;47.542;19.090;2022-11-20T14:35:55;99897.94;;;5.90;72.68
75923;BME280;64602;47.542;19.090;2022-11-20T14:41:25;99905.75;;;5.79;73.18
75923;BME280;64602;47.542;19.090;2022-11-20T14:46:27;99913.97;;;5.73;73.47
75923;BME280;64602;47.542;19.090;2022-11-20T14:51:31;99926.44;;;5.55;74.00
75923;BME280;64602;47.542;19.090;2022-11-20T14:56:33;99933.94;;;5.53;74.23
75923;BME280;64602;47.542;19.090;2022-11-20T15:01:36;99927.78;;;5.34;75.02
75923;BME280;64602;47.542;19.090;2022-11-20T15:06:49;99918.94;;;5.16;75.62
75923;BME280;64602;47.542;19.090;2022-11-20T15:11:55;99928.16;;;5.08;75.94
75923;BME280;64602;47.542;19.090;2022-11-20T15:16:58;99939.59;;;5.03;76.57
75923;BME280;64602;47.542;19.090;2022-11-20T15:22:00;99944.91;;;4.91;76.81
75923;BME280;64602;47.542;19.090;2022-11-20T15:27:02;99929.97;;;4.77;77.49
75923;BME280;64602;47.542;19.090;2022-11-20T15:32:05;99931.63;;;4.78;77.69
75923;BME280;64602;47.542;19.090;2022-11-20T15:37:14;99934.69;;;4.63;77.99
75923;BME280;64602;47.542;19.090;2022-11-20T15:42:16;99930.22;;;4.57;78.28
75923;BME280;64602;47.542;19.090;2022-11-20T15:47:19;99946.94;;;4.59;78.69
75923;BME280;64602;47.542;19.090;2022-11-20T15:52:22;99946.59;;;4.49;78.92
75923;BME280;64602;47.542;19.090;2022-11-20T15:57:24;99948.47;;;4.48;79.22
75923;BME280;64602;47.542;19.090;2022-11-20T16:02:27;99936.97;;;4.41;79.35
75923;BME280;64602;47.542;19.090;2022-11-20T16:07:29;99952.44;;;4.46;79.36
75923;BME280;64602;47.542;19.090;2022-11-20T16:12:31;99952.94;;;4.36;79.64
75923;BME280;64602;47.542;19.090;2022-11-20T16:17:51;99949.91;;;4.33;79.85
75923;BME280;64602;47.542;19.090;2022-11-20T16:22:53;99933.25;;;4.24;80.11
75923;BME280;64602;47.542;19.090;2022-11-20T16:27:55;99930.94;;;4.27;80.30
75923;BME280;64602;47.542;19.090;2022-11-20T16:32:58;99929.28;;;4.26;80.09
75923;BME280;64602;47.542;19.090;2022-11-20T16:38:01;99932.41;;;4.23;80.22
75923;BME280;64602;47.542;19.090;2022-11-20T16:43:08;99932.97;;;4.32;80.28
75923;BME280;64602;47.542;19.090;2022-11-20T16:48:13;99935.66;;;4.32;80.39
75923;BME280;64602;47.542;19.090;2022-11-20T16:53:21;99932.78;;;4.27;80.83
75923;BME280;64602;47.542;19.090;2022-11-20T16:58:24;99917.47;;;4.09;81.30
75923;BME280;64602;47.542;19.090;2022-11-20T17:03:26;99922.28;;;4.00;81.66
75923;BME280;64602;47.542;19.090;2022-11-20T17:08:28;99903.03;;;3.85;82.22
75923;BME280;64602;47.542;19.090;2022-11-20T17:13:31;99918.09;;;3.86;82.42
75923;BME280;64602;47.542;19.090;2022-11-20T17:18:40;99910.75;;;3.75;82.78
75923;BME280;64602;47.542;19.090;2022-11-20T17:23:43;99889.63;;;3.60;83.15
75923;BME280;64602;47.542;19.090;2022-11-20T17:28:52;99892.47;;;3.65;83.26
75923;BME280;64602;47.542;19.090;2022-11-20T17:33:54;99878.16;;;3.46;83.52
75923;BME280;64602;47.542;19.090;2022-11-20T17:38:57;99891.44;;;3.34;83.68
75923;BME280;64602;47.542;19.090;2022-11-20T17:44:00;99889.84;;;3.27;83.99
75923;BME280;64602;47.542;19.090;2022-11-20T17:49:03;99888.28;;;3.12;83.98
75923;BME280;64602;47.542;19.090;2022-11-20T17:54:05;99857.66;;;2.95;84.40
75923;BME280;64602;47.542;19.090;2022-11-20T17:59:12;99860.78;;;2.92;84.86
75923;BME280;64602;47.542;19.090;2022-11-20T18:04:14;99868.22;;;2.90;84.91
75923;BME280;64602;47.542;19.090;2022-11-20T18:09:16;99870.69;;;2.91;85.37
75923;BME280;64602;47.542;19.090;2022-11-20T18:14:18;99868.81;;;2.92;85.49
75923;BME280;64602;47.542;19.090;2022-11-20T18:19:39;99872.34;;;2.86;85.18
75923;BME280;64602;47.542;19.090;2022-11-20T18:25:01;99903.22;;;2.95;85.37
75923;BME280;64602;47.542;19.090;2022-11-20T18:30:04;99893.81;;;2.79;85.12
75923;BME280;64602;47.542;19.090;2022-11-20T18:35:06;99915.50;;;2.71;85.84
75923;BME280;64602;47.542;19.090;2022-11-20T18:40:09;99919.44;;;2.68;86.21
75923;BME280;64602;47.542;19.090;2022-11-20T18:45:11;99925.44;;;2.57;86.33
75923;BME280;64602;47.542;19.090;2022-11-20T18:50:14;99940.66;;;2.63;86.39
75923;BME280;64602;47.542;19.090;2022-11-20T18:55:16;99945.03;;;2.58;86.52
75923;BME280;64602;47.542;19.090;2022-11-20T19:00:18;99958.59;;;2.63;86.48
75923;BME280;64602;47.542;19.090;2022-11-20T19:05:20;99947.47;;;2.66;86.29
75923;BME280;64602;47.542;19.090;2022-11-20T19:10:22;99939.63;;;2.64;86.43
75923;BME280;64602;47.542;19.090;2022-11-20T19:15:25;99948.72;;;2.63;86.50
75923;BME280;64602;47.542;19.090;2022-11-20T19:20:27;99937.00;;;2.51;86.52
75923;BME280;64602;47.542;19.090;2022-11-20T19:25:30;99936.59;;;2.47;86.49
75923;BME280;64602;47.542;19.090;2022-11-20T19:30:39;99941.56;;;2.44;86.27
75923;BME280;64602;47.542;19.090;2022-11-20T19:35:42;99953.72;;;2.40;86.37
75923;BME280;64602;47.542;19.090;2022-11-20T19:40:44;99926.97;;;2.26;86.61
75923;BME280;64602;47.542;19.090;2022-11-20T19:45:46;99902.87;;;2.20;86.96
75923;BME280;64602;47.542;19.090;2022-11-20T19:50:48;99923.66;;;2.24;87.17
75923;BME280;64602;47.542;19.090;2022-11-20T19:55:57;99930.25;;;2.28;87.16
75923;BME280;64602;47.542;19.090;2022-11-20T20:01:07;99927.41;;;2.17;86.90
75923;BME280;64602;47.542;19.090;2022-11-20T20:06:12;99920.19;;;2.04;86.95
75923;BME280;64602;47.542;19.090;2022-11-20T20:11:17;99920.22;;;1.97;87.16
75923;BME280;64602;47.542;19.090;2022-11-20T20:16:22;99891.41;;;1.86;87.58
75923;BME280;64602;47.542;19.090;2022-11-20T20:21:24;99899.44;;;1.99;88.35
75923;BME280;64602;47.542;19.090;2022-11-20T20:26:29;99891.41;;;1.99;88.74
75923;BME280;64602;47.542;19.090;2022-11-20T20:31:32;99882.94;;;1.96;88.84
75923;BME280;64602;47.542;19.090;2022-11-20T20:36:34;99888.28;;;1.96;88.98
75923;BME280;64602;47.542;19.090;2022-11-20T20:41:36;99899.19;;;2.01;89.05
75923;BME280;64602;47.542;19.090;2022-11-20T20:46:39;99881.69;;;2.05;88.83
75923;BME280;64602;47.542;19.090;2022-11-20T20:51:41;99894.28;;;1.98;88.58
75923;BME280;64602;47.542;19.090;2022-11-20T20:56:43;99889.34;;;1.81;88.90
75923;BME280;64602;47.542;19.090;2022-11-20T21:01:45;99877.19;;;1.72;89.41
75923;BME280;64602;47.542;19.090;2022-11-20T21:06:47;99903.13;;;1.71;89.81
75923;BME280;64602;47.542;19.090;2022-11-20T21:11:49;99865.28;;;1.61;89.94
75923;BME280;64602;47.542;19.090;2022-11-20T21:16:51;99868.16;;;1.60;90.04
75923;BME280;64602;47.542;19.090;2022-11-20T21:21:53;99882.56;;;1.65;89.98
75923;BME280;64602;47.542;19.090;2022-11-20T21:27:04;99899.22;;;1.81;89.82
75923;BME280;64602;47.542;19.090;2022-11-20T21:32:07;99873.94;;;1.63;89.72
75923;BME280;64602;47.542;19.090;2022-11-20T21:37:09;99898.22;;;1.75;89.51
75923;BME280;64602;47.542;19.090;2022-11-20T21:42:11;99894.72;;;1.68;89.47
75923;BME280;64602;47.542;19.090;2022-11-20T21:47:15;99895.75;;;1.60;89.38
